createdAt,value
2023-02-12T00:00:04.148Z,5.81
2023-02-12T00:01:04.011Z,5.81
2023-02-12T00:02:04.126Z,5.81
2023-02-12T00:03:04.017Z,5.81
2023-02-12T00:04:04.033Z,5.81
2023-02-12T00:05:04.035Z,5.88
2023-02-12T00:06:03.910Z,5.88
2023-02-12T00:07:03.909Z,5.81
2023-02-12T00:08:03.914Z,5.81
2023-02-12T00:09:03.902Z,5.81
2023-02-12T00:10:04.021Z,5.81
2023-02-12T00:11:03.988Z,5.81
2023-02-12T00:12:03.997Z,5.81
2023-02-12T00:13:04.082Z,5.81
2023-02-12T00:14:03.991Z,5.88
2023-02-12T00:15:04.008Z,5.88
2023-02-12T00:16:04.133Z,5.88
2023-02-12T00:17:04.076Z,5.88
2023-02-12T00:18:04.067Z,5.88
2023-02-12T00:19:04.122Z,5.88
2023-02-12T00:20:04.226Z,5.88
2023-02-12T00:21:04.261Z,5.88
2023-02-12T00:22:04.233Z,5.88
2023-02-12T00:23:04.269Z,5.88
2023-02-12T00:24:04.227Z,5.88
2023-02-12T00:25:04.244Z,5.88
2023-02-12T00:26:04.230Z,5.88
2023-02-12T00:27:04.310Z,5.88
2023-02-12T00:28:04.283Z,5.88
2023-02-12T00:29:04.311Z,5.88
2023-02-12T00:30:04.399Z,5.88
2023-02-12T00:31:04.631Z,5.88
2023-02-12T00:32:04.466Z,5.88
2023-02-12T00:33:04.385Z,5.88
2023-02-12T00:34:04.467Z,5.88
2023-02-12T00:35:04.463Z,5.88
2023-02-12T00:36:04.477Z,5.88
2023-02-12T00:37:04.409Z,5.88
2023-02-12T00:38:04.396Z,5.88
2023-02-12T00:39:04.474Z,5.88
2023-02-12T00:40:04.389Z,5.88
2023-02-12T00:41:04.393Z,5.88
2023-02-12T00:42:04.235Z,5.88
2023-02-12T00:43:04.236Z,5.88
2023-02-12T00:44:04.227Z,5.88
2023-02-12T00:45:04.233Z,5.88
2023-02-12T00:46:04.318Z,5.88
2023-02-12T00:47:04.384Z,5.88
2023-02-12T00:48:03.452Z,5.88
2023-02-12T00:49:03.672Z,5.94
2023-02-12T00:50:03.744Z,5.94
2023-02-12T00:51:03.830Z,5.94
2023-02-12T00:52:03.818Z,5.94
2023-02-12T00:53:03.914Z,5.94
2023-02-12T00:54:03.982Z,5.94
2023-02-12T00:55:04.149Z,5.94
2023-02-12T00:56:04.067Z,5.94
2023-02-12T00:57:04.145Z,5.94
2023-02-12T00:58:04.222Z,5.94
2023-02-12T00:59:04.254Z,5.94
2023-02-12T01:00:04.396Z,5.94
2023-02-12T01:01:04.464Z,5.88
2023-02-12T01:02:04.466Z,5.94
2023-02-12T01:03:04.388Z,5.94
2023-02-12T01:04:04.386Z,5.94
2023-02-12T01:05:04.482Z,5.94
2023-02-12T01:06:03.503Z,5.94
2023-02-12T01:07:03.511Z,5.94
2023-02-12T01:08:03.512Z,5.94
2023-02-12T01:09:03.501Z,5.94
2023-02-12T01:10:03.751Z,5.94
2023-02-12T01:11:03.502Z,5.94
2023-02-12T01:12:03.685Z,5.94
2023-02-12T01:13:03.590Z,5.94
2023-02-12T01:14:03.673Z,5.94
2023-02-12T01:15:03.779Z,5.94
2023-02-12T01:16:03.809Z,5.94
2023-02-12T01:17:03.834Z,5.94
2023-02-12T01:18:03.826Z,5.94
2023-02-12T01:19:03.827Z,5.88
2023-02-12T01:20:03.753Z,5.94
2023-02-12T01:21:03.751Z,5.94
2023-02-12T01:22:03.780Z,5.94
2023-02-12T01:23:03.665Z,5.94
2023-02-12T01:24:03.747Z,5.94
2023-02-12T01:25:03.758Z,5.94
2023-02-12T01:26:03.752Z,5.94
2023-02-12T01:27:03.752Z,5.94
2023-02-12T01:28:04.012Z,5.94
2023-02-12T01:29:03.836Z,5.94
2023-02-12T01:30:03.964Z,5.94
2023-02-12T01:31:03.963Z,5.94
2023-02-12T01:32:04.037Z,5.94
2023-02-12T01:33:03.910Z,5.94
2023-02-12T01:34:03.994Z,5.94
2023-02-12T01:35:04.154Z,5.94
2023-02-12T01:36:04.105Z,5.94
2023-02-12T01:37:04.077Z,5.94
2023-02-12T01:38:04.068Z,5.94
2023-02-12T01:39:04.149Z,5.94
2023-02-12T01:40:04.165Z,5.94
2023-02-12T01:41:04.171Z,5.88
2023-02-12T01:42:04.153Z,5.94
2023-02-12T01:43:04.086Z,5.94
2023-02-12T01:44:04.072Z,5.94
2023-02-12T01:45:04.228Z,5.94
2023-02-12T01:46:04.345Z,5.94
2023-02-12T01:47:04.231Z,5.94
2023-02-12T01:48:04.310Z,5.94
2023-02-12T01:49:04.233Z,5.94
2023-02-12T01:50:04.316Z,5.94
2023-02-12T01:51:04.319Z,5.94
2023-02-12T01:52:04.314Z,5.94
2023-02-12T01:53:04.388Z,5.94
2023-02-12T01:54:04.311Z,5.94
2023-02-12T01:55:04.412Z,5.94
2023-02-12T01:56:04.325Z,5.94
2023-02-12T01:57:04.417Z,5.94
2023-02-12T01:58:04.471Z,5.94
2023-02-12T01:59:03.517Z,5.94
2023-02-12T02:00:03.502Z,5.94
2023-02-12T02:01:04.486Z,5.94
2023-02-12T02:02:04.711Z,5.94
2023-02-12T02:03:03.597Z,5.94
2023-02-12T02:04:03.547Z,5.94
2023-02-12T02:05:03.603Z,5.94
2023-02-12T02:06:03.598Z,5.94
2023-02-12T02:07:03.778Z,5.94
2023-02-12T02:08:03.678Z,5.94
2023-02-12T02:09:04.630Z,5.94
2023-02-12T02:10:03.920Z,5.94
2023-02-12T02:11:03.832Z,5.94
2023-02-12T02:12:03.830Z,5.94
2023-02-12T02:13:03.844Z,5.94
2023-02-12T02:14:03.842Z,5.88
2023-02-12T02:15:03.840Z,5.88
2023-02-12T02:16:03.862Z,5.94
2023-02-12T02:17:03.798Z,5.94
2023-02-12T02:18:03.775Z,5.94
2023-02-12T02:19:03.672Z,5.94
2023-02-12T02:20:03.756Z,5.94
2023-02-12T02:21:03.761Z,5.94
2023-02-12T02:22:03.754Z,5.94
2023-02-12T02:23:03.911Z,5.94
2023-02-12T02:24:03.994Z,5.94
2023-02-12T02:25:03.906Z,5.94
2023-02-12T02:26:03.987Z,5.94
2023-02-12T02:27:03.982Z,5.94
2023-02-12T02:28:04.185Z,5.94
2023-02-12T02:29:03.997Z,5.94
2023-02-12T02:30:04.008Z,5.94
2023-02-12T02:31:03.983Z,5.94
2023-02-12T02:32:03.878Z,5.94
2023-02-12T02:33:03.907Z,5.94
2023-02-12T02:34:04.080Z,5.94
2023-02-12T02:35:04.065Z,5.94
2023-02-12T02:36:04.239Z,5.94
2023-02-12T02:37:04.156Z,5.94
2023-02-12T02:38:04.140Z,5.94
2023-02-12T02:39:04.240Z,5.94
2023-02-12T02:40:04.234Z,5.94
2023-02-12T02:41:04.309Z,5.94
2023-02-12T02:42:04.407Z,5.94
2023-02-12T02:43:04.310Z,5.94
2023-02-12T02:44:04.401Z,5.94
2023-02-12T02:45:04.392Z,5.94
2023-02-12T02:46:04.471Z,5.94
2023-02-12T02:47:04.397Z,5.94
2023-02-12T02:48:04.386Z,5.94
2023-02-12T02:49:04.387Z,6.00
2023-02-12T02:50:03.512Z,5.94
2023-02-12T02:51:03.519Z,6.00
2023-02-12T02:52:03.588Z,6.00
2023-02-12T02:53:03.418Z,6.00
2023-02-12T02:54:03.589Z,6.00
2023-02-12T02:55:03.599Z,6.00
2023-02-12T02:56:03.592Z,6.00
2023-02-12T02:57:03.608Z,6.00
2023-02-12T02:58:03.516Z,6.00
2023-02-12T02:59:03.509Z,6.00
2023-02-12T03:00:03.670Z,6.00
2023-02-12T03:01:03.751Z,6.00
2023-02-12T03:02:03.590Z,6.00
2023-02-12T03:03:03.838Z,6.00
2023-02-12T03:04:03.584Z,6.00
2023-02-12T03:05:03.690Z,6.00
2023-02-12T03:06:03.596Z,6.00
2023-02-12T03:07:03.598Z,6.00
2023-02-12T03:08:03.665Z,6.00
2023-02-12T03:09:03.663Z,6.00
2023-02-12T03:10:03.747Z,6.00
2023-02-12T03:11:03.664Z,6.00
2023-02-12T03:12:03.666Z,6.00
2023-02-12T03:13:03.753Z,6.00
2023-02-12T03:14:03.752Z,6.00
2023-02-12T03:15:03.854Z,6.00
2023-02-12T03:16:03.836Z,6.00
2023-02-12T03:17:03.820Z,6.00
2023-02-12T03:18:03.904Z,6.00
2023-02-12T03:19:04.087Z,6.00
2023-02-12T03:20:03.986Z,6.00
2023-02-12T03:21:04.075Z,6.00
2023-02-12T03:22:03.986Z,6.00
2023-02-12T03:23:04.083Z,6.00
2023-02-12T03:24:03.986Z,6.00
2023-02-12T03:25:04.065Z,6.00
2023-02-12T03:26:04.066Z,6.00
2023-02-12T03:27:04.074Z,6.06
2023-02-12T03:28:04.184Z,6.00
2023-02-12T03:29:04.075Z,6.00
2023-02-12T03:30:04.084Z,6.00
2023-02-12T03:31:04.210Z,6.00
2023-02-12T03:32:04.072Z,6.00
2023-02-12T03:33:04.160Z,6.00
2023-02-12T03:34:04.166Z,6.00
2023-02-12T03:35:04.236Z,6.00
2023-02-12T03:36:04.140Z,6.00
2023-02-12T03:37:04.237Z,6.00
2023-02-12T03:38:04.402Z,6.00
2023-02-12T03:39:04.070Z,6.00
2023-02-12T03:40:04.077Z,6.00
2023-02-12T03:41:04.076Z,6.00
2023-02-12T03:42:04.164Z,6.00
2023-02-12T03:43:04.155Z,6.00
2023-02-12T03:44:04.222Z,6.00
2023-02-12T03:45:04.396Z,6.00
2023-02-12T03:46:04.471Z,6.00
2023-02-12T03:47:03.523Z,6.00
2023-02-12T03:48:04.479Z,6.00
2023-02-12T03:49:04.473Z,6.00
2023-02-12T03:50:03.524Z,6.00
2023-02-12T03:51:03.516Z,6.00
2023-02-12T03:52:03.548Z,6.00
2023-02-12T03:53:04.475Z,6.00
2023-02-12T03:54:03.534Z,6.00
2023-02-12T03:55:03.509Z,6.00
2023-02-12T03:56:04.494Z,6.00
2023-02-12T03:57:04.503Z,6.00
2023-02-12T03:58:04.387Z,6.00
2023-02-12T03:59:04.321Z,6.00
2023-02-12T04:00:04.480Z,6.00
2023-02-12T04:01:04.477Z,6.00
2023-02-12T04:02:04.525Z,6.00
2023-02-12T04:03:03.601Z,6.00
2023-02-12T04:04:03.523Z,6.00
2023-02-12T04:05:03.587Z,6.00
2023-02-12T04:06:03.754Z,6.00
2023-02-12T04:07:04.066Z,6.00
2023-02-12T04:08:04.240Z,6.00
2023-02-12T04:09:04.227Z,6.00
2023-02-12T04:11:04.304Z,6.00
2023-02-12T04:13:04.323Z,6.00
2023-02-12T04:14:04.311Z,6.00
2023-02-12T04:15:04.248Z,6.00
2023-02-12T04:16:04.242Z,6.00
2023-02-12T04:17:04.409Z,6.00
2023-02-12T04:18:04.257Z,6.00
2023-02-12T04:19:04.310Z,6.00
2023-02-12T04:20:04.328Z,6.00
2023-02-12T04:21:04.392Z,6.00
2023-02-12T04:22:04.466Z,6.00
2023-02-12T04:23:04.468Z,6.00
2023-02-12T04:24:04.378Z,6.00
2023-02-12T04:25:04.472Z,6.00
2023-02-12T04:26:04.381Z,6.00
2023-02-12T04:27:03.501Z,6.00
2023-02-12T04:28:03.632Z,6.00
2023-02-12T04:29:03.584Z,6.00
2023-02-12T04:30:03.586Z,6.00
2023-02-12T04:31:03.716Z,6.00
2023-02-12T04:32:03.672Z,6.00
2023-02-12T04:33:03.595Z,6.00
2023-02-12T04:34:03.691Z,6.00
2023-02-12T04:35:03.674Z,6.00
2023-02-12T04:36:03.665Z,6.00
2023-02-12T04:37:03.680Z,6.00
2023-02-12T04:38:03.830Z,6.00
2023-02-12T04:39:03.928Z,5.94
2023-02-12T04:40:03.833Z,5.94
2023-02-12T04:41:03.840Z,5.94
2023-02-12T04:42:03.999Z,6.00
2023-02-12T04:43:03.934Z,6.00
2023-02-12T04:44:03.913Z,6.00
2023-02-12T04:45:03.863Z,6.00
2023-02-12T04:46:03.928Z,6.00
2023-02-12T04:47:03.835Z,6.00
2023-02-12T04:48:03.916Z,6.00
2023-02-12T04:49:03.850Z,5.94
2023-02-12T04:50:03.756Z,6.00
2023-02-12T04:51:03.843Z,5.94
2023-02-12T04:52:03.824Z,6.00
2023-02-12T04:53:03.847Z,6.00
2023-02-12T04:54:03.832Z,6.00
2023-02-12T04:55:03.996Z,6.00
2023-02-12T04:56:03.910Z,6.00
2023-02-12T04:57:03.832Z,6.00
2023-02-12T04:58:03.996Z,6.00
2023-02-12T04:59:03.915Z,6.00
2023-02-12T05:00:03.918Z,5.94
2023-02-12T05:01:04.019Z,5.94
2023-02-12T05:02:03.990Z,5.94
2023-02-12T05:03:04.018Z,5.94
2023-02-12T05:04:03.996Z,5.94
2023-02-12T05:05:03.997Z,5.94
2023-02-12T05:06:04.009Z,5.94
2023-02-12T05:07:03.991Z,5.94
2023-02-12T05:08:04.006Z,5.94
2023-02-12T05:09:03.826Z,5.94
2023-02-12T05:10:03.910Z,5.94
2023-02-12T05:11:03.868Z,5.94
2023-02-12T05:12:03.861Z,5.94
2023-02-12T05:13:03.933Z,5.94
2023-02-12T05:14:03.758Z,5.94
2023-02-12T05:15:03.916Z,5.94
2023-02-12T05:16:03.996Z,5.94
2023-02-12T05:17:03.991Z,5.94
2023-02-12T05:18:03.996Z,5.94
2023-02-12T05:19:03.995Z,5.94
2023-02-12T05:20:03.910Z,5.94
2023-02-12T05:21:03.909Z,5.94
2023-02-12T05:22:03.942Z,5.94
2023-02-12T05:23:03.908Z,5.94
2023-02-12T05:24:03.831Z,5.94
2023-02-12T05:25:04.341Z,5.88
2023-02-12T05:26:04.086Z,5.88
2023-02-12T05:27:04.007Z,5.88
2023-02-12T05:28:04.157Z,5.88
2023-02-12T05:29:04.075Z,5.88
2023-02-12T05:30:04.153Z,5.88
2023-02-12T05:31:04.164Z,5.88
2023-02-12T05:32:04.197Z,5.88
2023-02-12T05:33:04.081Z,5.88
2023-02-12T05:34:04.253Z,5.88
2023-02-12T05:35:04.247Z,5.88
2023-02-12T05:36:04.230Z,5.88
2023-02-12T05:37:04.393Z,5.88
2023-02-12T05:38:04.389Z,5.88
2023-02-12T05:39:04.394Z,5.88
2023-02-12T05:40:04.388Z,5.88
2023-02-12T05:41:04.460Z,5.88
2023-02-12T05:42:04.403Z,5.88
2023-02-12T05:43:04.389Z,5.88
2023-02-12T05:44:03.517Z,5.88
2023-02-12T05:45:04.495Z,5.88
2023-02-12T05:46:04.651Z,5.88
2023-02-12T05:47:04.549Z,5.88
2023-02-12T05:48:03.502Z,5.88
2023-02-12T05:49:04.469Z,5.88
2023-02-12T05:50:04.402Z,5.88
2023-02-12T05:51:04.310Z,5.81
2023-02-12T05:52:04.350Z,5.88
2023-02-12T05:53:04.226Z,5.88
2023-02-12T05:54:04.327Z,5.88
2023-02-12T05:55:04.228Z,5.88
2023-02-12T05:56:04.316Z,5.88
2023-02-12T05:57:04.405Z,5.88
2023-02-12T05:58:04.323Z,5.88
2023-02-12T05:59:04.341Z,5.88
2023-02-12T06:00:04.395Z,5.88
2023-02-12T06:01:04.395Z,5.88
2023-02-12T06:02:04.310Z,5.88
2023-02-12T06:03:04.311Z,5.88
2023-02-12T06:04:04.399Z,5.88
2023-02-12T06:05:04.338Z,5.88
2023-02-12T06:06:04.323Z,5.88
2023-02-12T06:07:04.333Z,5.88
2023-02-12T06:08:04.222Z,5.88
2023-02-12T06:09:04.236Z,5.88
2023-02-12T06:10:04.295Z,5.88
2023-02-12T06:11:04.136Z,5.88
2023-02-12T06:12:04.236Z,5.88
2023-02-12T06:13:04.143Z,5.88
2023-02-12T06:14:04.227Z,5.88
2023-02-12T06:15:04.305Z,5.88
2023-02-12T06:16:04.447Z,5.88
2023-02-12T06:17:04.387Z,5.88
2023-02-12T06:18:04.467Z,5.88
2023-02-12T06:19:04.550Z,5.88
2023-02-12T06:20:04.419Z,5.88
2023-02-12T06:21:04.462Z,5.88
2023-02-12T06:22:03.512Z,5.88
2023-02-12T06:23:03.499Z,5.88
2023-02-12T06:24:03.519Z,5.88
2023-02-12T06:25:04.392Z,5.88
2023-02-12T06:26:03.500Z,5.88
2023-02-12T06:27:03.604Z,5.88
2023-02-12T06:28:03.643Z,5.88
2023-02-12T06:29:03.514Z,5.88
2023-02-12T06:30:03.506Z,5.88
2023-02-12T06:31:03.694Z,5.88
2023-02-12T06:32:03.827Z,5.88
2023-02-12T06:33:03.672Z,5.88
2023-02-12T06:34:03.760Z,5.88
2023-02-12T06:35:03.671Z,5.88
2023-02-12T06:36:03.750Z,5.88
2023-02-12T06:37:03.756Z,5.88
2023-02-12T06:38:03.985Z,5.88
2023-02-12T06:39:03.909Z,5.88
2023-02-12T06:40:04.000Z,5.88
2023-02-12T06:41:03.984Z,5.88
2023-02-12T06:42:03.909Z,5.88
2023-02-12T06:43:04.070Z,5.88
2023-02-12T06:44:03.911Z,5.88
2023-02-12T06:45:03.918Z,5.88
2023-02-12T06:46:03.906Z,5.88
2023-02-12T06:47:04.098Z,5.88
2023-02-12T06:48:04.069Z,5.88
2023-02-12T06:49:04.160Z,5.88
2023-02-12T06:50:04.069Z,5.88
2023-02-12T06:51:04.075Z,5.88
2023-02-12T06:52:04.195Z,5.88
2023-02-12T06:53:04.148Z,5.88
2023-02-12T06:54:04.227Z,5.88
2023-02-12T06:55:04.230Z,5.88
2023-02-12T06:56:04.308Z,5.88
2023-02-12T06:57:04.342Z,5.88
2023-02-12T06:58:04.397Z,5.88
2023-02-12T06:59:04.498Z,5.88
2023-02-12T07:00:04.528Z,5.88
2023-02-12T07:01:03.624Z,5.88
2023-02-12T07:02:03.592Z,5.88
2023-02-12T07:03:03.744Z,5.88
2023-02-12T07:04:03.797Z,5.88
2023-02-12T07:05:03.761Z,5.88
2023-02-12T07:06:03.678Z,5.88
2023-02-12T07:07:03.592Z,5.88
2023-02-12T07:08:03.522Z,5.88
2023-02-12T07:09:03.591Z,5.88
2023-02-12T07:10:03.598Z,5.88
2023-02-12T07:11:03.545Z,5.88
2023-02-12T07:12:03.606Z,5.94
2023-02-12T07:13:04.477Z,5.88
2023-02-12T07:14:04.393Z,5.88
2023-02-12T07:15:04.484Z,5.94
2023-02-12T07:16:04.504Z,5.94
2023-02-12T07:17:04.479Z,5.94
2023-02-12T07:18:03.544Z,5.94
2023-02-12T07:19:04.467Z,5.94
2023-02-12T07:20:03.521Z,5.94
2023-02-12T07:21:03.590Z,5.94
2023-02-12T07:22:03.759Z,5.94
2023-02-12T07:23:03.757Z,5.94
2023-02-12T07:24:03.686Z,5.94
2023-02-12T07:25:03.679Z,5.94
2023-02-12T07:26:03.747Z,5.94
2023-02-12T07:27:03.925Z,5.94
2023-02-12T07:28:04.047Z,5.94
2023-02-12T07:29:03.905Z,5.94
2023-02-12T07:30:04.010Z,5.94
2023-02-12T07:31:04.026Z,5.94
2023-02-12T07:32:04.080Z,5.94
2023-02-12T07:33:04.156Z,5.94
2023-02-12T07:34:04.238Z,5.94
2023-02-12T07:35:04.388Z,5.94
2023-02-12T07:36:04.391Z,5.94
2023-02-12T07:37:04.389Z,5.94
2023-02-12T07:38:04.465Z,5.94
2023-02-12T07:39:04.554Z,5.94
2023-02-12T07:40:03.536Z,5.94
2023-02-12T07:41:03.595Z,5.94
2023-02-12T07:42:03.533Z,5.94
2023-02-12T07:43:03.601Z,5.94
2023-02-12T07:44:03.520Z,5.94
2023-02-12T07:45:03.513Z,5.94
2023-02-12T07:46:03.682Z,5.94
2023-02-12T07:47:03.603Z,5.94
2023-02-12T07:48:03.621Z,5.94
2023-02-12T07:49:03.601Z,5.94
2023-02-12T07:50:03.589Z,5.94
2023-02-12T07:51:03.512Z,5.94
2023-02-12T07:52:03.596Z,5.88
2023-02-12T07:53:04.465Z,5.94
2023-02-12T07:54:03.519Z,5.94
2023-02-12T07:55:03.594Z,5.94
2023-02-12T07:56:04.550Z,5.94
2023-02-12T07:57:04.397Z,5.94
2023-02-12T07:58:04.437Z,5.94
2023-02-12T07:59:04.330Z,5.94
2023-02-12T08:00:04.563Z,5.94
2023-02-12T08:01:04.506Z,5.94
2023-02-12T08:02:04.530Z,5.94
2023-02-12T08:03:04.551Z,5.94
2023-02-12T08:04:04.504Z,5.94
2023-02-12T08:05:04.478Z,5.94
2023-02-12T08:06:04.488Z,6.00
2023-02-12T08:07:03.526Z,6.00
2023-02-12T08:08:03.675Z,6.00
2023-02-12T08:09:03.760Z,6.00
2023-02-12T08:10:03.667Z,6.00
2023-02-12T08:11:03.765Z,6.00
2023-02-12T08:12:05.357Z,6.00
2023-02-12T08:13:04.492Z,6.00
2023-02-12T08:14:03.512Z,6.00
2023-02-12T08:15:03.529Z,6.00
2023-02-12T08:16:03.678Z,6.06
2023-02-12T08:17:03.592Z,6.06
2023-02-12T08:18:03.613Z,6.06
2023-02-12T08:19:16.077Z,6.06
2023-02-12T08:20:03.513Z,6.06
2023-02-12T08:21:03.595Z,6.06
2023-02-12T08:22:03.673Z,6.06
2023-02-12T08:23:03.681Z,6.06
2023-02-12T08:24:03.677Z,6.06
2023-02-12T08:25:03.611Z,6.12
2023-02-12T08:26:03.521Z,6.12
2023-02-12T08:27:03.520Z,6.12
2023-02-12T08:28:03.619Z,6.12
2023-02-12T08:29:03.712Z,6.12
2023-02-12T08:30:03.606Z,6.12
2023-02-12T08:31:03.698Z,6.12
2023-02-12T08:32:03.879Z,6.12
2023-02-12T08:33:03.675Z,6.19
2023-02-12T08:34:03.838Z,6.19
2023-02-12T08:35:03.921Z,6.19
2023-02-12T08:36:03.830Z,6.19
2023-02-12T08:37:03.838Z,6.19
2023-02-12T08:38:03.912Z,6.19
2023-02-12T08:39:03.839Z,6.19
2023-02-12T08:40:03.904Z,6.25
2023-02-12T08:41:04.005Z,6.25
2023-02-12T08:42:03.999Z,6.25
2023-02-12T08:43:03.933Z,6.25
2023-02-12T08:44:03.910Z,6.25
2023-02-12T08:45:04.004Z,6.25
2023-02-12T08:46:04.110Z,6.31
2023-02-12T08:47:03.994Z,6.31
2023-02-12T08:48:04.080Z,6.31
2023-02-12T08:49:03.980Z,6.31
2023-02-12T08:50:03.983Z,6.38
2023-02-12T08:51:04.157Z,6.38
2023-02-12T08:52:04.163Z,6.38
2023-02-12T08:53:04.249Z,6.38
2023-02-12T08:54:04.469Z,6.38
2023-02-12T08:55:04.311Z,6.44
2023-02-12T08:56:03.594Z,6.44
2023-02-12T08:57:04.402Z,6.44
2023-02-12T08:58:03.587Z,6.44
2023-02-12T08:59:03.680Z,6.50
2023-02-12T09:00:03.664Z,6.50
2023-02-12T09:01:03.728Z,6.50
2023-02-12T09:02:03.690Z,6.50
2023-02-12T09:03:03.762Z,6.50
2023-02-12T09:04:03.664Z,6.56
2023-02-12T09:05:03.752Z,6.56
2023-02-12T09:06:03.668Z,6.56
2023-02-12T09:07:03.768Z,6.56
2023-02-12T09:08:03.832Z,6.62
2023-02-12T09:09:03.907Z,6.62
2023-02-12T09:10:03.918Z,6.62
2023-02-12T09:11:03.921Z,6.62
2023-02-12T09:12:04.080Z,6.69
2023-02-12T09:13:04.099Z,6.69
2023-02-12T09:14:04.067Z,6.69
2023-02-12T09:15:04.141Z,6.69
2023-02-12T09:16:04.309Z,6.75
2023-02-12T09:17:04.352Z,6.75
2023-02-12T09:18:04.309Z,6.75
2023-02-12T09:19:04.481Z,6.75
2023-02-12T09:20:03.512Z,6.81
2023-02-12T09:21:03.513Z,6.81
2023-02-12T09:22:03.511Z,6.81
2023-02-12T09:23:03.539Z,6.81
2023-02-12T09:24:03.740Z,6.88
2023-02-12T09:25:03.670Z,6.88
2023-02-12T09:26:03.661Z,6.88
2023-02-12T09:27:03.756Z,6.88
2023-02-12T09:28:03.682Z,6.88
2023-02-12T09:29:03.674Z,6.94
2023-02-12T09:30:03.759Z,6.94
2023-02-12T09:31:03.920Z,6.94
2023-02-12T09:32:03.882Z,6.94
2023-02-12T09:33:03.782Z,7.00
2023-02-12T09:34:03.925Z,7.00
2023-02-12T09:35:03.841Z,7.00
2023-02-12T09:36:03.828Z,7.00
2023-02-12T09:37:03.827Z,7.06
2023-02-12T09:38:03.862Z,7.06
2023-02-12T09:39:03.927Z,7.06
2023-02-12T09:40:03.910Z,7.06
2023-02-12T09:41:03.905Z,7.12
2023-02-12T09:42:03.901Z,7.12
2023-02-12T09:43:03.832Z,7.12
2023-02-12T09:44:03.450Z,7.12
2023-02-12T09:45:03.503Z,7.12
2023-02-12T09:46:03.612Z,7.19
2023-02-12T09:47:03.854Z,7.19
2023-02-12T09:48:03.770Z,7.19
2023-02-12T09:49:03.824Z,7.19
2023-02-12T09:50:03.744Z,7.19
2023-02-12T09:51:03.905Z,7.19
2023-02-12T09:52:03.985Z,7.25
2023-02-12T09:53:03.982Z,7.25
2023-02-12T09:54:04.153Z,7.25
2023-02-12T09:55:04.065Z,7.25
2023-02-12T09:56:04.164Z,7.25
2023-02-12T09:57:04.080Z,7.25
2023-02-12T09:58:04.072Z,7.31
2023-02-12T09:59:04.242Z,7.31
2023-02-12T10:00:04.246Z,7.31
2023-02-12T10:01:04.257Z,7.31
2023-02-12T10:02:04.321Z,7.31
2023-02-12T10:03:05.576Z,7.38
2023-02-12T10:04:04.511Z,7.38
2023-02-12T10:05:03.560Z,7.38
2023-02-12T10:06:03.548Z,7.38
2023-02-12T10:07:03.674Z,7.38
2023-02-12T10:08:03.765Z,7.38
2023-02-12T10:09:03.675Z,7.38
2023-02-12T10:10:05.750Z,7.38
2023-02-12T10:11:03.845Z,7.44
2023-02-12T10:12:03.761Z,7.44
2023-02-12T10:13:03.767Z,7.44
2023-02-12T10:14:03.758Z,7.44
2023-02-12T10:15:03.760Z,7.44
2023-02-12T10:16:03.868Z,7.44
2023-02-12T10:17:03.759Z,7.44
2023-02-12T10:18:03.695Z,7.50
2023-02-12T10:19:03.689Z,7.50
2023-02-12T10:20:03.677Z,7.50
2023-02-12T10:21:03.768Z,7.50
2023-02-12T10:22:03.614Z,7.50
2023-02-12T10:23:03.784Z,7.56
2023-02-12T10:24:03.764Z,7.56
2023-02-12T10:25:03.764Z,7.56
2023-02-12T10:26:03.841Z,7.56
2023-02-12T10:27:03.772Z,7.56
2023-02-12T10:28:03.939Z,7.56
2023-02-12T10:29:03.920Z,7.56
2023-02-12T10:30:03.864Z,7.56
2023-02-12T10:31:04.084Z,7.56
2023-02-12T10:32:03.836Z,7.62
2023-02-12T10:33:03.835Z,7.62
2023-02-12T10:34:03.832Z,7.62
2023-02-12T10:35:03.829Z,7.62
2023-02-12T10:36:04.012Z,7.62
2023-02-12T10:37:03.925Z,7.69
2023-02-12T10:38:03.829Z,7.69
2023-02-12T10:39:03.909Z,7.69
2023-02-12T10:40:03.904Z,7.69
2023-02-12T10:41:03.936Z,7.69
2023-02-12T10:42:04.017Z,7.69
2023-02-12T10:43:04.002Z,7.69
2023-02-12T10:44:04.027Z,7.69
2023-02-12T10:45:03.999Z,7.69
2023-02-12T10:46:04.122Z,7.75
2023-02-12T10:47:03.913Z,7.75
2023-02-12T10:48:03.990Z,7.75
2023-02-12T10:49:03.984Z,7.75
2023-02-12T10:50:04.000Z,7.75
2023-02-12T10:51:04.157Z,7.75
2023-02-12T10:52:04.236Z,7.81
2023-02-12T10:53:04.069Z,7.81
2023-02-12T10:54:05.404Z,7.81
2023-02-12T10:55:04.203Z,7.81
2023-02-12T10:56:04.233Z,7.81
2023-02-12T10:57:04.314Z,7.81
2023-02-12T10:58:04.322Z,7.81
2023-02-12T10:59:04.390Z,7.88
2023-02-12T11:00:04.315Z,7.88
2023-02-12T11:01:04.314Z,7.88
2023-02-12T11:02:04.382Z,7.88
2023-02-12T11:03:04.394Z,7.88
2023-02-12T11:04:04.471Z,7.88
2023-02-12T11:05:03.603Z,7.88
2023-02-12T11:06:03.518Z,7.88
2023-02-12T11:07:03.494Z,7.94
2023-02-12T11:08:03.594Z,7.94
2023-02-12T11:09:04.461Z,7.94
2023-02-12T11:10:03.513Z,7.94
2023-02-12T11:11:04.540Z,7.94
2023-02-12T11:12:04.470Z,8.00
2023-02-12T11:13:04.567Z,8.00
2023-02-12T11:14:04.401Z,8.00
2023-02-12T11:15:04.385Z,8.00
2023-02-12T11:16:04.483Z,8.06
2023-02-12T11:17:04.301Z,8.06
2023-02-12T11:18:05.391Z,8.06
2023-02-12T11:19:04.305Z,8.06
2023-02-12T11:20:04.477Z,8.06
2023-02-12T11:21:03.512Z,8.12
2023-02-12T11:22:04.470Z,8.12
2023-02-12T11:23:03.599Z,8.12
2023-02-12T11:24:04.890Z,8.12
2023-02-12T11:25:03.517Z,8.12
2023-02-12T11:26:04.492Z,8.19
2023-02-12T11:27:03.423Z,8.19
2023-02-12T11:28:03.626Z,8.25
2023-02-12T11:29:03.740Z,8.25
2023-02-12T11:30:03.595Z,8.25
2023-02-12T11:31:03.650Z,8.25
2023-02-12T11:32:03.564Z,8.25
2023-02-12T11:33:03.584Z,8.31
2023-02-12T11:34:03.504Z,8.31
2023-02-12T11:35:03.671Z,8.31
2023-02-12T11:36:06.476Z,8.38
2023-02-12T11:37:03.593Z,8.38
2023-02-12T11:38:03.607Z,8.38
2023-02-12T11:39:03.595Z,8.38
2023-02-12T11:40:03.609Z,8.44
2023-02-12T11:41:03.592Z,8.44
2023-02-12T11:42:03.585Z,8.44
2023-02-12T11:43:03.584Z,8.44
2023-02-12T11:44:03.839Z,8.50
2023-02-12T11:45:03.852Z,8.50
2023-02-12T11:46:04.183Z,8.50
2023-02-12T11:47:03.837Z,8.56
2023-02-12T11:48:03.846Z,8.56
2023-02-12T11:49:03.912Z,8.56
2023-02-12T11:50:03.993Z,8.62
2023-02-12T11:51:03.993Z,8.62
2023-02-12T11:52:03.984Z,8.69
2023-02-12T11:53:04.081Z,8.69
2023-02-12T11:54:04.062Z,8.75
2023-02-12T11:55:04.072Z,8.75
2023-02-12T11:56:04.682Z,8.75
2023-02-12T11:57:04.177Z,8.81
2023-02-12T11:58:04.242Z,8.81
2023-02-12T11:59:04.233Z,8.81
2023-02-12T12:00:04.385Z,8.88
2023-02-12T12:01:04.394Z,8.88
2023-02-12T12:02:03.628Z,8.88
2023-02-12T12:03:03.631Z,8.94
2023-02-12T12:04:03.594Z,8.94
2023-02-12T12:05:03.590Z,8.94
2023-02-12T12:06:03.571Z,9.00
2023-02-12T12:07:03.705Z,9.00
2023-02-12T12:08:03.662Z,9.00
2023-02-12T12:09:03.667Z,9.00
2023-02-12T12:10:03.585Z,9.06
2023-02-12T12:11:03.662Z,9.06
2023-02-12T12:12:03.757Z,9.06
2023-02-12T12:13:03.834Z,9.06
2023-02-12T12:14:03.911Z,9.06
2023-02-12T12:15:04.076Z,9.06
2023-02-12T12:16:04.173Z,9.12
2023-02-12T12:17:04.149Z,9.12
2023-02-12T12:18:04.306Z,9.12
2023-02-12T12:19:04.407Z,9.12
2023-02-12T12:20:03.589Z,9.12
2023-02-12T12:21:03.595Z,9.12
2023-02-12T12:22:03.588Z,9.12
2023-02-12T12:23:03.612Z,9.19
2023-02-12T12:24:03.622Z,9.19
2023-02-12T12:25:05.981Z,9.19
2023-02-12T12:26:03.667Z,9.19
2023-02-12T12:27:03.667Z,9.19
2023-02-12T12:28:03.801Z,9.19
2023-02-12T12:29:03.749Z,9.25
2023-02-12T12:30:03.918Z,9.25
2023-02-12T12:31:03.881Z,9.25
2023-02-12T12:32:03.931Z,9.25
2023-02-12T12:33:03.956Z,9.25
2023-02-12T12:34:03.910Z,9.25
2023-02-12T12:35:03.995Z,9.25
2023-02-12T12:36:04.071Z,9.25
2023-02-12T12:37:03.991Z,9.25
2023-02-12T12:38:03.990Z,9.25
2023-02-12T12:39:04.002Z,9.25
2023-02-12T12:40:03.910Z,9.25
2023-02-12T12:41:03.920Z,9.25
2023-02-12T12:42:04.070Z,9.25
2023-02-12T12:43:03.999Z,9.25
2023-02-12T12:44:03.915Z,9.31
2023-02-12T12:45:03.991Z,9.25
2023-02-12T12:46:03.862Z,9.31
2023-02-12T12:47:03.910Z,9.31
2023-02-12T12:48:03.996Z,9.31
2023-02-12T12:49:03.935Z,9.25
2023-02-12T12:50:03.905Z,9.25
2023-02-12T12:51:03.923Z,9.25
2023-02-12T12:52:03.915Z,9.25
2023-02-12T12:53:03.910Z,9.25
2023-02-12T12:54:04.019Z,9.25
2023-02-12T12:55:03.994Z,9.25
2023-02-12T12:56:03.828Z,9.25
2023-02-12T12:57:03.936Z,9.25
2023-02-12T12:58:03.969Z,9.25
2023-02-12T12:59:03.840Z,9.25
2023-02-12T13:00:03.770Z,9.25
2023-02-12T13:01:03.862Z,9.25
2023-02-12T13:02:03.949Z,9.25
2023-02-12T13:03:03.999Z,9.19
2023-02-12T13:04:03.987Z,9.19
2023-02-12T13:05:03.992Z,9.19
2023-02-12T13:06:03.912Z,9.19
2023-02-12T13:07:03.932Z,9.19
2023-02-12T13:08:03.833Z,9.19
2023-02-12T13:09:03.846Z,9.19
2023-02-12T13:10:03.983Z,9.19
2023-02-12T13:11:04.080Z,9.19
2023-02-12T13:12:03.993Z,9.19
2023-02-12T13:13:04.003Z,9.19
2023-02-12T13:14:04.084Z,9.19
2023-02-12T13:15:04.013Z,9.19
2023-02-12T13:16:04.163Z,9.19
2023-02-12T13:17:04.150Z,9.12
2023-02-12T13:18:04.064Z,9.12
2023-02-12T13:19:04.171Z,9.12
2023-02-12T13:20:04.158Z,9.12